Mountain Lake, Minnesota
Current Conditions -  °F | °C
As of 5:54 AM on Thursday 23 Oct 2014 (Local Time) from KMWM Reporting Station
Haze Haze  
Wind Chill: 11°   Ceiling: NA
Heat Index: 11°   Visibility: 5mi
Dew Point: 10°   Wind: 3mph
Humidity: 94%   Direction: 230°SW
Pressure: 30.01"   Gusts: NA
Location:  43.94°N, 94.93°W
Report Text: KMWM 231054Z AUTO 23003KT 5SM BR 11/10 A3001 RMK AO2
Loading
Personal Weather Stations






























Interactive Weather Map
Tropical Storm Tracking
New forecast layout! Learn more

10-Day Weather Forecast

Advertisements
Track Severe Weather on mobile